Impacts TAF Board INFO
FOR SITUATIONAL AWARENESS. NOT TO BE USED FOR FLIGHT PLANNING PURPOSES.
IDs:

KBHM - Birmingham Intl, AL, US

Issued at 2338 UTC 22 Jun 2018
Updated at 0025 UTC 23 Jun 2018
Potential Impact None Slight Moderate High
Time2353Z 23/01Z 23/02Z 23/03Z 23/04Z 23/05Z 23/06Z 23/07Z 23/08Z 23/09Z 23/10Z 23/11Z 23/12Z 23/13Z>>
Type OBS PRVL PRVL PRVL PRVL PRVL PRVL PRVL PRVL PRVL PRVL
  [TEMP]  
PRVL
  [TEMP]  
PRVL
  [TEMP]  
PRVL
  [TEMP]  
VIS 10 >6 >6 >6 >6 >6 >6 >6 >6 >6 >6 >6 >6 >6
CIG 250 -- 250 250 250 250 250 -- -- -- --
  [12]  
--
  [12]  
--
  [12]  
--
  [12]  
Cover OVC SCT BKN BKN BKN BKN BKN SCT SCT SCT SCT
  [BKN]  
SCT
  [BKN]  
SCT
  [BKN]  
SCT
  [BKN]  
FltCat VFR VFR VFR VFR VFR VFR VFR VFR VFR VFR VFR
  [MVFR]  
VFR
  [MVFR]  
VFR
  [MVFR]  
VFR
  [MVFR]  
WX -- -- VCTS VCTS VCTS VCTS VCTS -- -- -- --
  [--]  
--
  [--]  
--
  [--]  
--
  [--]  
WDir 220 230 230 230 230 230 230 220 220 220 220
[220]
220
[220]
220
[220]
220
[220]
WSpd 11 10 7 7 7 7 7 8 8 8 8
  [8]  
8
  [8]  
8
  [8]  
8
  [8]  
WGst 19 -- -- -- -- -- -- -- -- -- --
  [--]  
--
  [--]  
--
  [--]  
--
  [--]  

Raw TAF
KBHM 222338Z 2300/2324 23010KT P6SM SCT040 SCT120
  FM230200 23007KT P6SM VCTS SCT040CB BKN250
  FM230700 22008KT P6SM SCT015 SCT035
  TEMPO 2310/2314 BKN012
  FM231600 23008KT P6SM SCT015 BKN040
  PROB30 2316/2322 4SM TSRA BKN015CB OVC035


Raw METAR
KBHM 222353Z 22011G19KT 10SM FEW025 OVC250 27/22 A2983 RMK AO2 SLP091 60031 T02720217 10289 20228 55005
KBHM 222253Z 23010KT 10SM SCT029 OVC250 28/23 A2982 RMK AO2 SLP090 T02780228
KBHM 222153Z 22009KT 10SM FEW020 SCT120 BKN250 28/22 A2983 RMK AO2 SLP092 T02780222

METAR Board
Radar Display
Forecast Discussion

FOR SITUATIONAL AWARENESS. NOT TO BE USED FOR FLIGHT PLANNING PURPOSES.